sensor_id;sensor_type;location;lat;lon;timestamp;pressure;altitude;pressure_sealevel;temperature;humidity
74905;BME280;63465;50.862;6.220;2022-11-13T00:02:12;100973.09;;;7.99;77.03
74905;BME280;63465;50.862;6.220;2022-11-13T00:04:57;100962.66;;;7.93;77.36
74905;BME280;63465;50.862;6.220;2022-11-13T00:07:44;100956.59;;;7.88;77.82
74905;BME280;63465;50.862;6.220;2022-11-13T00:10:29;100952.97;;;7.93;77.10
74905;BME280;63465;50.862;6.220;2022-11-13T00:13:14;100949.34;;;7.97;76.92
74905;BME280;63465;50.862;6.220;2022-11-13T00:16:02;100953.78;;;7.97;76.96
74905;BME280;63465;50.862;6.220;2022-11-13T00:18:47;100947.78;;;7.85;77.04
74905;BME280;63465;50.862;6.220;2022-11-13T00:21:32;100951.63;;;7.69;78.25
74905;BME280;63465;50.862;6.220;2022-11-13T00:24:19;100949.28;;;8.00;77.00
74905;BME280;63465;50.862;6.220;2022-11-13T00:27:04;100950.06;;;8.07;76.44
74905;BME280;63465;50.862;6.220;2022-11-13T00:29:49;100954.66;;;7.96;76.69
74905;BME280;63465;50.862;6.220;2022-11-13T00:32:34;100941.66;;;7.83;77.06
74905;BME280;63465;50.862;6.220;2022-11-13T00:35:21;100945.31;;;7.76;77.36
74905;BME280;63465;50.862;6.220;2022-11-13T00:38:05;100948.88;;;7.75;77.36
74905;BME280;63465;50.862;6.220;2022-11-13T00:40:52;100939.25;;;7.71;77.44
74905;BME280;63465;50.862;6.220;2022-11-13T00:43:37;100934.91;;;7.67;77.54
74905;BME280;63465;50.862;6.220;2022-11-13T00:46:23;100928.06;;;7.57;78.22
74905;BME280;63465;50.862;6.220;2022-11-13T00:49:08;100928.88;;;7.59;77.53
74905;BME280;63465;50.862;6.220;2022-11-13T00:51:53;100921.06;;;7.53;77.75
74905;BME280;63465;50.862;6.220;2022-11-13T00:54:38;100914.94;;;7.50;77.84
74905;BME280;63465;50.862;6.220;2022-11-13T00:57:25;100916.75;;;7.47;78.23
74905;BME280;63465;50.862;6.220;2022-11-13T01:00:11;100914.03;;;7.52;77.77
74905;BME280;63465;50.862;6.220;2022-11-13T01:02:56;100904.38;;;7.50;77.88
74905;BME280;63465;50.862;6.220;2022-11-13T01:05:44;100910.56;;;7.49;77.85
74905;BME280;63465;50.862;6.220;2022-11-13T01:08:30;100896.50;;;7.47;78.09
74905;BME280;63465;50.862;6.220;2022-11-13T01:11:17;100894.72;;;7.48;78.04
74905;BME280;63465;50.862;6.220;2022-11-13T01:14:04;100895.56;;;7.50;77.85
74905;BME280;63465;50.862;6.220;2022-11-13T01:16:49;100890.44;;;7.41;78.23
74905;BME280;63465;50.862;6.220;2022-11-13T01:19:34;100895.69;;;7.42;78.44
74905;BME280;63465;50.862;6.220;2022-11-13T01:22:20;100892.06;;;7.49;78.27
74905;BME280;63465;50.862;6.220;2022-11-13T01:25:06;100895.38;;;7.61;77.52
74905;BME280;63465;50.862;6.220;2022-11-13T01:27:51;100887.63;;;7.52;77.33
74905;BME280;63465;50.862;6.220;2022-11-13T01:30:38;100888.78;;;7.37;77.47
74905;BME280;63465;50.862;6.220;2022-11-13T01:33:23;100881.97;;;7.22;77.76
74905;BME280;63465;50.862;6.220;2022-11-13T01:36:11;100879.31;;;7.22;78.00
74905;BME280;63465;50.862;6.220;2022-11-13T01:38:56;100883.56;;;7.32;77.29
74905;BME280;63465;50.862;6.220;2022-11-13T01:41:41;100878.34;;;7.29;77.19
74905;BME280;63465;50.862;6.220;2022-11-13T01:44:48;100875.47;;;7.43;76.60
74905;BME280;63465;50.862;6.220;2022-11-13T01:47:35;100870.41;;;7.29;76.88
74905;BME280;63465;50.862;6.220;2022-11-13T01:50:20;100866.19;;;7.17;77.13
74905;BME280;63465;50.862;6.220;2022-11-13T01:53:06;100860.03;;;7.17;77.04
74905;BME280;63465;50.862;6.220;2022-11-13T01:55:51;100860.06;;;7.15;77.30
74905;BME280;63465;50.862;6.220;2022-11-13T01:58:38;100857.31;;;7.21;77.03
74905;BME280;63465;50.862;6.220;2022-11-13T02:01:24;100849.28;;;7.30;76.85
74905;BME280;63465;50.862;6.220;2022-11-13T02:04:11;100854.66;;;7.23;76.76
74905;BME280;63465;50.862;6.220;2022-11-13T02:06:59;100844.97;;;7.23;76.71
74905;BME280;63465;50.862;6.220;2022-11-13T02:09:47;100843.91;;;7.35;76.08
74905;BME280;63465;50.862;6.220;2022-11-13T02:12:34;100840.59;;;7.22;76.35
74905;BME280;63465;50.862;6.220;2022-11-13T02:15:23;100844.84;;;7.31;76.07
74905;BME280;63465;50.862;6.220;2022-11-13T02:18:10;100840.56;;;7.24;76.19
74905;BME280;63465;50.862;6.220;2022-11-13T02:21:02;100841.97;;;6.90;76.58
74905;BME280;63465;50.862;6.220;2022-11-13T02:23:56;100834.25;;;6.78;77.11
74905;BME280;63465;50.862;6.220;2022-11-13T02:26:44;100832.47;;;6.82;76.91
74905;BME280;63465;50.862;6.220;2022-11-13T02:29:29;100829.13;;;6.67;77.28
74905;BME280;63465;50.862;6.220;2022-11-13T02:32:14;100832.00;;;7.09;76.22
74905;BME280;63465;50.862;6.220;2022-11-13T02:34:59;100833.88;;;7.01;75.95
74905;BME280;63465;50.862;6.220;2022-11-13T02:37:44;100833.41;;;6.76;76.99
74905;BME280;63465;50.862;6.220;2022-11-13T02:40:31;100830.47;;;6.94;76.11
74905;BME280;63465;50.862;6.220;2022-11-13T02:43:18;100832.91;;;7.08;75.95
74905;BME280;63465;50.862;6.220;2022-11-13T02:46:03;100832.78;;;7.14;75.50
74905;BME280;63465;50.862;6.220;2022-11-13T02:48:49;100824.81;;;7.18;75.35
74905;BME280;63465;50.862;6.220;2022-11-13T02:51:34;100825.69;;;7.18;75.15
74905;BME280;63465;50.862;6.220;2022-11-13T02:54:19;100820.44;;;7.17;75.00
74905;BME280;63465;50.862;6.220;2022-11-13T02:57:04;100809.19;;;7.05;75.09
74905;BME280;63465;50.862;6.220;2022-11-13T02:59:51;100811.44;;;6.75;76.15
74905;BME280;63465;50.862;6.220;2022-11-13T03:02:36;100806.63;;;7.01;75.41
74905;BME280;63465;50.862;6.220;2022-11-13T03:05:21;100802.13;;;7.07;75.22
74905;BME280;63465;50.862;6.220;2022-11-13T03:08:07;100809.22;;;7.04;75.35
74905;BME280;63465;50.862;6.220;2022-11-13T03:10:53;100797.81;;;7.03;75.60
74905;BME280;63465;50.862;6.220;2022-11-13T03:13:38;100801.28;;;7.05;75.74
74905;BME280;63465;50.862;6.220;2022-11-13T03:16:25;100797.00;;;6.98;75.40
74905;BME280;63465;50.862;6.220;2022-11-13T03:19:11;100786.59;;;6.89;75.26
74905;BME280;63465;50.862;6.220;2022-11-13T03:21:56;100789.44;;;6.76;75.48
74905;BME280;63465;50.862;6.220;2022-11-13T03:24:41;100787.91;;;6.63;75.94
74905;BME280;63465;50.862;6.220;2022-11-13T03:27:29;100779.84;;;6.72;75.67
74905;BME280;63465;50.862;6.220;2022-11-13T03:30:14;100787.94;;;6.60;75.75
74905;BME280;63465;50.862;6.220;2022-11-13T03:33:01;100791.81;;;6.34;76.23
74905;BME280;63465;50.862;6.220;2022-11-13T03:35:46;100792.34;;;6.58;75.48
74905;BME280;63465;50.862;6.220;2022-11-13T03:38:31;100791.47;;;6.59;75.54
74905;BME280;63465;50.862;6.220;2022-11-13T03:41:17;100783.53;;;6.60;75.86
74905;BME280;63465;50.862;6.220;2022-11-13T03:44:02;100791.72;;;6.42;76.50
74905;BME280;63465;50.862;6.220;2022-11-13T03:46:47;100780.03;;;6.60;76.02
74905;BME280;63465;50.862;6.220;2022-11-13T03:49:34;100781.91;;;6.50;75.99
74905;BME280;63465;50.862;6.220;2022-11-13T03:52:19;100778.97;;;6.70;74.71
74905;BME280;63465;50.862;6.220;2022-11-13T03:55:05;100777.31;;;6.66;75.10
74905;BME280;63465;50.862;6.220;2022-11-13T03:57:50;100776.47;;;6.61;74.62
74905;BME280;63465;50.862;6.220;2022-11-13T04:00:37;100768.69;;;6.53;75.11
74905;BME280;63465;50.862;6.220;2022-11-13T04:03:22;100775.72;;;6.54;75.33
74905;BME280;63465;50.862;6.220;2022-11-13T04:06:09;100771.34;;;6.52;75.48
74905;BME280;63465;50.862;6.220;2022-11-13T04:08:54;100768.59;;;6.59;75.03
74905;BME280;63465;50.862;6.220;2022-11-13T04:11:40;100763.38;;;6.56;75.04
74905;BME280;63465;50.862;6.220;2022-11-13T04:14:25;100772.97;;;6.60;75.10
74905;BME280;63465;50.862;6.220;2022-11-13T04:17:10;100766.97;;;6.49;75.36
74905;BME280;63465;50.862;6.220;2022-11-13T04:19:55;100772.19;;;6.54;75.44
74905;BME280;63465;50.862;6.220;2022-11-13T04:22:42;100771.31;;;6.53;75.14
74905;BME280;63465;50.862;6.220;2022-11-13T04:25:27;100765.13;;;6.56;74.98
74905;BME280;63465;50.862;6.220;2022-11-13T04:28:12;100759.94;;;6.51;75.05
74905;BME280;63465;50.862;6.220;2022-11-13T04:30:57;100759.09;;;6.48;75.42
74905;BME280;63465;50.862;6.220;2022-11-13T04:33:43;100759.09;;;6.48;75.55
74905;BME280;63465;50.862;6.220;2022-11-13T04:36:28;100752.22;;;6.39;75.63
74905;BME280;63465;50.862;6.220;2022-11-13T04:39:14;100749.56;;;6.40;75.71
74905;BME280;63465;50.862;6.220;2022-11-13T04:41:59;100743.34;;;6.43;75.65
74905;BME280;63465;50.862;6.220;2022-11-13T04:45:03;100740.69;;;6.43;75.44
74905;BME280;63465;50.862;6.220;2022-11-13T04:47:49;100736.38;;;6.40;75.55
74905;BME280;63465;50.862;6.220;2022-11-13T04:50:35;100731.97;;;6.39;75.47
74905;BME280;63465;50.862;6.220;2022-11-13T04:53:20;100739.06;;;6.36;75.10
74905;BME280;63465;50.862;6.220;2022-11-13T04:56:07;100739.97;;;6.33;75.56
74905;BME280;63465;50.862;6.220;2022-11-13T04:58:52;100739.03;;;6.39;75.26
74905;BME280;63465;50.862;6.220;2022-11-13T05:01:37;100737.22;;;6.42;74.70
74905;BME280;63465;50.862;6.220;2022-11-13T05:04:23;100732.00;;;6.38;75.42
74905;BME280;63465;50.862;6.220;2022-11-13T05:07:08;100733.00;;;6.29;76.08
74905;BME280;63465;50.862;6.220;2022-11-13T05:09:53;100727.84;;;6.21;75.98
74905;BME280;63465;50.862;6.220;2022-11-13T05:12:39;100725.25;;;6.18;76.01
74905;BME280;63465;50.862;6.220;2022-11-13T05:15:25;100720.91;;;6.17;76.09
74905;BME280;63465;50.862;6.220;2022-11-13T05:18:10;100727.88;;;6.20;76.07
74905;BME280;63465;50.862;6.220;2022-11-13T05:20:55;100720.00;;;6.17;76.10
74905;BME280;63465;50.862;6.220;2022-11-13T05:23:41;100731.38;;;6.22;76.50
74905;BME280;63465;50.862;6.220;2022-11-13T05:26:26;100713.72;;;6.27;76.18
74905;BME280;63465;50.862;6.220;2022-11-13T05:29:13;100719.97;;;6.20;76.55
74905;BME280;63465;50.862;6.220;2022-11-13T05:31:58;100707.00;;;6.04;76.51
74905;BME280;63465;50.862;6.220;2022-11-13T05:34:43;100703.56;;;5.99;77.05
74905;BME280;63465;50.862;6.220;2022-11-13T05:37:28;100711.53;;;5.93;77.17
74905;BME280;63465;50.862;6.220;2022-11-13T05:40:14;100705.47;;;5.86;77.25
74905;BME280;63465;50.862;6.220;2022-11-13T05:42:59;100701.94;;;5.87;77.23
74905;BME280;63465;50.862;6.220;2022-11-13T05:45:46;100699.41;;;5.80;77.70
74905;BME280;63465;50.862;6.220;2022-11-13T05:48:32;100704.69;;;5.78;77.86
74905;BME280;63465;50.862;6.220;2022-11-13T05:51:21;100697.69;;;5.76;77.93
74905;BME280;63465;50.862;6.220;2022-11-13T05:54:06;100704.75;;;5.74;77.78
74905;BME280;63465;50.862;6.220;2022-11-13T05:56:52;100695.13;;;5.71;77.61
74905;BME280;63465;50.862;6.220;2022-11-13T05:59:38;100701.31;;;5.70;77.94
74905;BME280;63465;50.862;6.220;2022-11-13T06:02:24;100697.75;;;5.71;77.66
74905;BME280;63465;50.862;6.220;2022-11-13T06:05:09;100692.56;;;5.65;77.71
74905;BME280;63465;50.862;6.220;2022-11-13T06:07:54;100690.91;;;5.59;77.39
74905;BME280;63465;50.862;6.220;2022-11-13T06:10:40;100684.84;;;5.51;77.52
74905;BME280;63465;50.862;6.220;2022-11-13T06:13:25;100681.34;;;5.50;77.64
74905;BME280;63465;50.862;6.220;2022-11-13T06:16:12;100674.41;;;5.43;77.69
74905;BME280;63465;50.862;6.220;2022-11-13T06:19:00;100676.19;;;5.41;77.60
74905;BME280;63465;50.862;6.220;2022-11-13T06:21:46;100671.00;;;5.36;77.98
74905;BME280;63465;50.862;6.220;2022-11-13T06:24:31;100666.63;;;5.35;78.16
74905;BME280;63465;50.862;6.220;2022-11-13T06:27:16;100671.91;;;5.32;77.90
74905;BME280;63465;50.862;6.220;2022-11-13T06:30:03;100675.50;;;5.25;78.11
74905;BME280;63465;50.862;6.220;2022-11-13T06:32:51;100664.94;;;5.31;77.66
74905;BME280;63465;50.862;6.220;2022-11-13T06:35:37;100671.06;;;5.32;77.65
74905;BME280;63465;50.862;6.220;2022-11-13T06:38:22;100666.63;;;5.34;77.39
74905;BME280;63465;50.862;6.220;2022-11-13T06:41:12;100666.66;;;5.32;77.64
74905;BME280;63465;50.862;6.220;2022-11-13T06:43:58;100660.44;;;5.40;77.15
74905;BME280;63465;50.862;6.220;2022-11-13T06:46:44;100663.03;;;5.43;76.84
74905;BME280;63465;50.862;6.220;2022-11-13T06:49:29;100661.22;;;5.46;76.76
74905;BME280;63465;50.862;6.220;2022-11-13T06:52:15;100671.75;;;5.45;76.73
74905;BME280;63465;50.862;6.220;2022-11-13T06:55:01;100662.97;;;5.47;76.69
74905;BME280;63465;50.862;6.220;2022-11-13T06:57:46;100657.69;;;5.47;76.73
74905;BME280;63465;50.862;6.220;2022-11-13T07:00:31;100658.53;;;5.51;76.50
74905;BME280;63465;50.862;6.220;2022-11-13T07:03:17;100663.81;;;5.48;76.67
74905;BME280;63465;50.862;6.220;2022-11-13T07:06:04;100657.72;;;5.46;76.67
74905;BME280;63465;50.862;6.220;2022-11-13T07:08:51;100662.88;;;5.53;76.64
74905;BME280;63465;50.862;6.220;2022-11-13T07:11:36;100667.22;;;5.58;76.59
74905;BME280;63465;50.862;6.220;2022-11-13T07:14:22;100671.56;;;5.60;76.58
74905;BME280;63465;50.862;6.220;2022-11-13T07:17:07;100672.34;;;5.68;75.88
74905;BME280;63465;50.862;6.220;2022-11-13T07:19:52;100668.72;;;5.76;75.88
74905;BME280;63465;50.862;6.220;2022-11-13T07:22:37;100662.59;;;5.77;75.98
74905;BME280;63465;50.862;6.220;2022-11-13T07:25:24;100668.81;;;5.69;75.86
74905;BME280;63465;50.862;6.220;2022-11-13T07:28:09;100650.38;;;5.69;76.37
74905;BME280;63465;50.862;6.220;2022-11-13T07:30:56;100654.69;;;5.77;75.81
74905;BME280;63465;50.862;6.220;2022-11-13T07:33:41;100656.34;;;5.84;75.83
74905;BME280;63465;50.862;6.220;2022-11-13T07:36:26;100657.09;;;5.92;75.63
74905;BME280;63465;50.862;6.220;2022-11-13T07:39:12;100654.41;;;5.95;75.64
74905;BME280;63465;50.862;6.220;2022-11-13T07:41:58;100658.81;;;5.96;75.18
74905;BME280;63465;50.862;6.220;2022-11-13T07:44:44;100660.56;;;5.99;74.94
74905;BME280;63465;50.862;6.220;2022-11-13T07:47:29;100657.00;;;6.01;74.96
74905;BME280;63465;50.862;6.220;2022-11-13T07:50:14;100656.81;;;6.12;74.85
74905;BME280;63465;50.862;6.220;2022-11-13T07:53:01;100650.44;;;6.29;74.68
74905;BME280;63465;50.862;6.220;2022-11-13T07:55:47;100646.72;;;6.40;74.14
74905;BME280;63465;50.862;6.220;2022-11-13T07:58:34;100649.16;;;6.53;74.07
74905;BME280;63465;50.862;6.220;2022-11-13T08:01:19;100653.47;;;6.57;73.67
74905;BME280;63465;50.862;6.220;2022-11-13T08:04:04;100648.13;;;6.63;73.73
74905;BME280;63465;50.862;6.220;2022-11-13T08:06:49;100639.28;;;6.64;73.80
74905;BME280;63465;50.862;6.220;2022-11-13T08:09:35;100634.69;;;6.75;73.58
74905;BME280;63465;50.862;6.220;2022-11-13T08:12:20;100639.78;;;6.86;73.06
74905;BME280;63465;50.862;6.220;2022-11-13T08:15:07;100633.59;;;6.87;73.02
74905;BME280;63465;50.862;6.220;2022-11-13T08:17:53;100630.81;;;6.93;72.91
74905;BME280;63465;50.862;6.220;2022-11-13T08:20:39;100636.06;;;6.96;72.74
74905;BME280;63465;50.862;6.220;2022-11-13T08:23:24;100628.94;;;7.02;72.84
74905;BME280;63465;50.862;6.220;2022-11-13T08:26:09;100635.69;;;7.15;72.62
74905;BME280;63465;50.862;6.220;2022-11-13T08:28:54;100622.25;;;7.29;72.28
74905;BME280;63465;50.862;6.220;2022-11-13T08:31:41;100625.38;;;7.46;71.79
74905;BME280;63465;50.862;6.220;2022-11-13T08:34:26;100626.84;;;7.61;71.31
74905;BME280;63465;50.862;6.220;2022-11-13T08:37:11;100624.84;;;7.71;70.84
74905;BME280;63465;50.862;6.220;2022-11-13T08:39:56;100615.56;;;7.92;69.60
74905;BME280;63465;50.862;6.220;2022-11-13T08:42:41;100611.75;;;8.06;68.76
74905;BME280;63465;50.862;6.220;2022-11-13T08:45:28;100610.63;;;8.14;68.39
74905;BME280;63465;50.862;6.220;2022-11-13T08:48:14;100610.50;;;8.19;67.80
74905;BME280;63465;50.862;6.220;2022-11-13T08:51:00;100613.13;;;8.20;68.02
74905;BME280;63465;50.862;6.220;2022-11-13T08:53:45;100603.19;;;8.30;67.88
74905;BME280;63465;50.862;6.220;2022-11-13T08:56:30;100612.53;;;8.45;68.17
74905;BME280;63465;50.862;6.220;2022-11-13T08:59:15;100604.22;;;8.61;67.08
74905;BME280;63465;50.862;6.220;2022-11-13T09:02:00;100602.34;;;8.64;68.23
74905;BME280;63465;50.862;6.220;2022-11-13T09:04:47;100597.41;;;8.83;68.08
74905;BME280;63465;50.862;6.220;2022-11-13T09:07:32;100601.56;;;8.93;67.19
74905;BME280;63465;50.862;6.220;2022-11-13T09:10:17;100592.41;;;9.05;66.82
74905;BME280;63465;50.862;6.220;2022-11-13T09:13:04;100583.72;;;9.32;65.94
74905;BME280;63465;50.862;6.220;2022-11-13T09:15:51;100583.56;;;9.36;65.53
74905;BME280;63465;50.862;6.220;2022-11-13T09:18:37;100583.44;;;9.41;64.75
74905;BME280;63465;50.862;6.220;2022-11-13T09:21:23;100581.63;;;9.41;65.03
74905;BME280;63465;50.862;6.220;2022-11-13T09:24:08;100574.31;;;9.51;65.15
74905;BME280;63465;50.862;6.220;2022-11-13T09:26:54;100578.38;;;9.61;65.02
74905;BME280;63465;50.862;6.220;2022-11-13T09:29:39;100570.25;;;9.68;64.29
74905;BME280;63465;50.862;6.220;2022-11-13T09:32:24;100574.19;;;9.82;63.95
74905;BME280;63465;50.862;6.220;2022-11-13T09:35:09;100565.53;;;9.77;64.39
74905;BME280;63465;50.862;6.220;2022-11-13T09:37:56;100564.78;;;10.00;64.04
74905;BME280;63465;50.862;6.220;2022-11-13T09:40:45;100572.13;;;9.92;64.12
74905;BME280;63465;50.862;6.220;2022-11-13T09:43:35;100574.59;;;9.98;64.31
74905;BME280;63465;50.862;6.220;2022-11-13T09:46:34;100582.34;;;10.31;63.67
74905;BME280;63465;50.862;6.220;2022-11-13T09:49:25;100582.72;;;9.64;66.14
74905;BME280;63465;50.862;6.220;2022-11-13T09:52:14;100583.78;;;9.58;67.08
74905;BME280;63465;50.862;6.220;2022-11-13T09:55:02;100582.09;;;9.84;65.81
74905;BME280;63465;50.862;6.220;2022-11-13T09:57:50;100575.09;;;9.81;65.54
74905;BME280;63465;50.862;6.220;2022-11-13T10:00:37;100577.44;;;9.92;65.87
74905;BME280;63465;50.862;6.220;2022-11-13T10:03:29;100566.94;;;9.89;66.26
74905;BME280;63465;50.862;6.220;2022-11-13T10:06:19;100567.34;;;10.04;66.34
74905;BME280;63465;50.862;6.220;2022-11-13T10:09:24;100560.50;;;10.50;65.24
74905;BME280;63465;50.862;6.220;2022-11-13T10:12:13;100551.88;;;11.17;62.72
74905;BME280;63465;50.862;6.220;2022-11-13T10:15:02;100543.53;;;13.18;56.89
74905;BME280;63465;50.862;6.220;2022-11-13T10:17:50;100555.13;;;14.80;52.52
74905;BME280;63465;50.862;6.220;2022-11-13T10:20:39;100536.63;;;15.75;50.28
74905;BME280;63465;50.862;6.220;2022-11-13T10:23:28;100536.06;;;17.20;45.83
74905;BME280;63465;50.862;6.220;2022-11-13T10:26:17;100541.53;;;17.60;43.81
74905;BME280;63465;50.862;6.220;2022-11-13T10:29:12;100525.75;;;19.14;38.40
74905;BME280;63465;50.862;6.220;2022-11-13T10:31:58;100531.66;;;20.29;37.23
74905;BME280;63465;50.862;6.220;2022-11-13T10:34:47;100525.41;;;19.06;38.34
74905;BME280;63465;50.862;6.220;2022-11-13T10:37:44;100538.00;;;19.55;38.43
74905;BME280;63465;50.862;6.220;2022-11-13T10:40:35;100527.16;;;19.44;38.08
74905;BME280;63465;50.862;6.220;2022-11-13T10:43:22;100530.38;;;18.08;41.83
74905;BME280;63465;50.862;6.220;2022-11-13T10:46:18;100529.06;;;17.59;44.52
74905;BME280;63465;50.862;6.220;2022-11-13T10:49:17;100523.94;;;17.69;44.02
74905;BME280;63465;50.862;6.220;2022-11-13T10:52:03;100532.75;;;18.12;43.22
74905;BME280;63465;50.862;6.220;2022-11-13T10:54:49;100521.09;;;17.99;42.71
74905;BME280;63465;50.862;6.220;2022-11-13T10:57:34;100520.25;;;17.98;42.77
74905;BME280;63465;50.862;6.220;2022-11-13T11:00:23;100518.03;;;18.18;43.02
74905;BME280;63465;50.862;6.220;2022-11-13T11:03:14;100509.34;;;18.40;41.84
74905;BME280;63465;50.862;6.220;2022-11-13T11:06:04;100511.66;;;18.06;42.15
74905;BME280;63465;50.862;6.220;2022-11-13T11:08:49;100496.03;;;18.77;40.65
74905;BME280;63465;50.862;6.220;2022-11-13T11:11:34;100506.91;;;18.63;40.62
74905;BME280;63465;50.862;6.220;2022-11-13T11:14:41;100490.09;;;19.23;39.75
74905;BME280;63465;50.862;6.220;2022-11-13T11:17:33;100499.66;;;18.25;42.13
74905;BME280;63465;50.862;6.220;2022-11-13T11:20:30;100498.97;;;18.48;42.86
74905;BME280;63465;50.862;6.220;2022-11-13T11:23:24;100494.59;;;18.20;43.25
74905;BME280;63465;50.862;6.220;2022-11-13T11:26:13;100486.94;;;17.46;43.89
74905;BME280;63465;50.862;6.220;2022-11-13T11:29:07;100484.13;;;17.90;43.21
74905;BME280;63465;50.862;6.220;2022-11-13T11:31:54;100484.41;;;18.25;42.61
74905;BME280;63465;50.862;6.220;2022-11-13T11:34:43;100486.34;;;18.23;43.47
74905;BME280;63465;50.862;6.220;2022-11-13T11:37:34;100480.66;;;18.28;42.58
74905;BME280;63465;50.862;6.220;2022-11-13T11:40:25;100474.34;;;18.54;42.02
74905;BME280;63465;50.862;6.220;2022-11-13T11:43:18;100462.38;;;18.59;41.85
74905;BME280;63465;50.862;6.220;2022-11-13T11:46:04;100446.25;;;19.34;40.18
74905;BME280;63465;50.862;6.220;2022-11-13T11:48:49;100455.44;;;19.80;38.73
74905;BME280;63465;50.862;6.220;2022-11-13T11:51:40;100452.66;;;19.93;38.50
74905;BME280;63465;50.862;6.220;2022-11-13T11:54:39;100450.56;;;18.87;40.64
74905;BME280;63465;50.862;6.220;2022-11-13T11:57:35;100451.03;;;20.14;38.00
74905;BME280;63465;50.862;6.220;2022-11-13T12:00:23;100442.91;;;18.94;40.01
74905;BME280;63465;50.862;6.220;2022-11-13T12:03:33;100443.22;;;19.39;39.22
74905;BME280;63465;50.862;6.220;2022-11-13T12:06:28;100426.44;;;19.11;40.14
74905;BME280;63465;50.862;6.220;2022-11-13T12:09:23;100423.25;;;20.37;37.52
74905;BME280;63465;50.862;6.220;2022-11-13T12:12:17;100419.50;;;19.44;39.39
74905;BME280;63465;50.862;6.220;2022-11-13T12:15:09;100415.06;;;19.80;38.32
74905;BME280;63465;50.862;6.220;2022-11-13T12:18:04;100411.59;;;20.36;36.89
74905;BME280;63465;50.862;6.220;2022-11-13T12:21:04;100405.09;;;20.16;37.06
74905;BME280;63465;50.862;6.220;2022-11-13T12:24:04;100399.03;;;19.66;38.41
74905;BME280;63465;50.862;6.220;2022-11-13T12:27:05;100394.69;;;20.45;36.57
74905;BME280;63465;50.862;6.220;2022-11-13T12:30:06;100387.44;;;20.12;37.53
74905;BME280;63465;50.862;6.220;2022-11-13T12:33:07;100381.47;;;21.43;34.73
74905;BME280;63465;50.862;6.220;2022-11-13T12:35:56;100372.09;;;21.47;34.16
74905;BME280;63465;50.862;6.220;2022-11-13T12:38:46;100374.56;;;21.82;34.14
74905;BME280;63465;50.862;6.220;2022-11-13T12:41:39;100364.19;;;19.40;38.68
74905;BME280;63465;50.862;6.220;2022-11-13T12:44:26;100373.47;;;17.85;42.50
74905;BME280;63465;50.862;6.220;2022-11-13T12:47:13;100367.13;;;17.33;43.62
74905;BME280;63465;50.862;6.220;2022-11-13T12:50:02;100367.25;;;17.44;44.09
74905;BME280;63465;50.862;6.220;2022-11-13T12:52:57;100370.94;;;17.56;43.73
74905;BME280;63465;50.862;6.220;2022-11-13T12:55:54;100349.59;;;17.67;43.21
74905;BME280;63465;50.862;6.220;2022-11-13T12:58:52;100355.63;;;17.03;44.78
74905;BME280;63465;50.862;6.220;2022-11-13T13:01:42;100352.03;;;16.75;46.11
74905;BME280;63465;50.862;6.220;2022-11-13T13:04:42;100340.81;;;17.25;42.98
74905;BME280;63465;50.862;6.220;2022-11-13T13:07:44;100336.19;;;16.44;45.16
74905;BME280;63465;50.862;6.220;2022-11-13T13:10:39;100330.09;;;16.13;45.36
74905;BME280;63465;50.862;6.220;2022-11-13T13:13:30;100324.13;;;16.08;46.00
74905;BME280;63465;50.862;6.220;2022-11-13T13:16:22;100322.53;;;16.05;45.94
74905;BME280;63465;50.862;6.220;2022-11-13T13:19:24;100319.44;;;15.82;46.50
74905;BME280;63465;50.862;6.220;2022-11-13T13:22:23;100316.59;;;15.85;46.57
74905;BME280;63465;50.862;6.220;2022-11-13T13:25:23;100320.13;;;15.86;46.87
74905;BME280;63465;50.862;6.220;2022-11-13T13:28:17;100314.13;;;16.11;46.24
74905;BME280;63465;50.862;6.220;2022-11-13T13:31:13;100312.47;;;15.80;47.11
74905;BME280;63465;50.862;6.220;2022-11-13T13:34:15;100315.25;;;16.07;46.24
74905;BME280;63465;50.862;6.220;2022-11-13T13:37:13;100301.50;;;15.99;46.57
74905;BME280;63465;50.862;6.220;2022-11-13T13:40:14;100306.06;;;15.97;46.25
74905;BME280;63465;50.862;6.220;2022-11-13T13:43:28;100301.97;;;16.05;46.25
74905;BME280;63465;50.862;6.220;2022-11-13T13:46:20;100303.81;;;16.61;45.09
74905;BME280;63465;50.862;6.220;2022-11-13T13:49:12;100290.47;;;16.32;45.70
74905;BME280;63465;50.862;6.220;2022-11-13T13:51:58;100282.75;;;16.13;45.43
74905;BME280;63465;50.862;6.220;2022-11-13T13:54:46;100281.28;;;16.36;45.58
74905;BME280;63465;50.862;6.220;2022-11-13T13:57:31;100275.91;;;16.51;44.96
74905;BME280;63465;50.862;6.220;2022-11-13T14:00:19;100272.59;;;16.74;44.26
74905;BME280;63465;50.862;6.220;2022-11-13T14:03:17;100275.03;;;16.65;44.64
74905;BME280;63465;50.862;6.220;2022-11-13T14:06:24;100273.94;;;16.67;44.47
74905;BME280;63465;50.862;6.220;2022-11-13T14:09:16;100271.00;;;16.57;44.74
74905;BME280;63465;50.862;6.220;2022-11-13T14:12:05;100275.88;;;16.65;44.15
74905;BME280;63465;50.862;6.220;2022-11-13T14:14:51;100264.56;;;16.74;44.22
74905;BME280;63465;50.862;6.220;2022-11-13T14:17:36;100271.41;;;16.37;45.51
74905;BME280;63465;50.862;6.220;2022-11-13T14:20:22;100263.69;;;15.75;47.06
74905;BME280;63465;50.862;6.220;2022-11-13T14:23:10;100260.31;;;15.57;47.57
74905;BME280;63465;50.862;6.220;2022-11-13T14:25:56;100261.53;;;15.96;47.10
74905;BME280;63465;50.862;6.220;2022-11-13T14:28:46;100249.03;;;15.82;47.12
74905;BME280;63465;50.862;6.220;2022-11-13T14:31:34;100246.69;;;16.04;46.43
74905;BME280;63465;50.862;6.220;2022-11-13T14:34:21;100247.00;;;16.00;46.65
74905;BME280;63465;50.862;6.220;2022-11-13T14:37:19;100248.78;;;15.56;47.81
74905;BME280;63465;50.862;6.220;2022-11-13T14:40:13;100244.31;;;16.14;45.88
74905;BME280;63465;50.862;6.220;2022-11-13T14:43:05;100245.94;;;16.02;46.62
74905;BME280;63465;50.862;6.220;2022-11-13T14:45:55;100245.19;;;15.86;46.92
74905;BME280;63465;50.862;6.220;2022-11-13T14:48:50;100236.91;;;15.31;48.33